createdAt,value
2024-01-31T00:01:13.469Z,101423.69
2024-01-31T00:03:43.523Z,101428.75
2024-01-31T00:06:14.758Z,101424.28
2024-01-31T00:08:44.816Z,101421.69
2024-01-31T00:11:14.655Z,101427.78
2024-01-31T00:13:44.592Z,101417.06
2024-01-31T00:16:18.216Z,101417.22
2024-01-31T00:18:48.145Z,101419.91
2024-01-31T00:21:18.031Z,101420.84
2024-01-31T00:23:48.072Z,101424.59
2024-01-31T00:26:18.089Z,101426.59
2024-01-31T00:28:48.018Z,101427.53
2024-01-31T00:31:20.590Z,101437.44
2024-01-31T00:33:50.850Z,101426.25
2024-01-31T00:36:20.831Z,101423.56
2024-01-31T00:38:50.711Z,101435.13
2024-01-31T00:41:20.620Z,101422.09
2024-01-31T00:43:50.978Z,101428.19
2024-01-31T00:46:23.683Z,101429.84
2024-01-31T00:48:53.947Z,101429.00
2024-01-31T00:51:23.898Z,101431.63
2024-01-31T00:53:53.819Z,101418.59
2024-01-31T00:56:23.703Z,101421.13
2024-01-31T00:58:53.555Z,101421.19
2024-01-31T01:01:26.094Z,101413.38
2024-01-31T01:03:56.102Z,101418.34
2024-01-31T01:06:26.058Z,101427.16
2024-01-31T01:08:55.938Z,101426.19
2024-01-31T01:11:26.801Z,101424.56
2024-01-31T01:13:56.631Z,101423.88
2024-01-31T01:16:29.183Z,101429.25
2024-01-31T01:18:59.357Z,101429.31
2024-01-31T01:21:29.274Z,101421.75
2024-01-31T01:23:59.136Z,101421.22
2024-01-31T01:26:29.072Z,101423.91
2024-01-31T01:28:58.990Z,101429.03
2024-01-31T01:31:31.506Z,101421.28
2024-01-31T01:34:01.485Z,101425.75
2024-01-31T01:36:31.475Z,101428.50
2024-01-31T01:39:01.604Z,101422.44
2024-01-31T01:41:31.508Z,101425.28
2024-01-31T01:44:01.466Z,101427.88
2024-01-31T01:46:37.893Z,101424.75
2024-01-31T01:49:08.021Z,101421.16
2024-01-31T01:51:38.917Z,101429.94
2024-01-31T01:54:09.015Z,101419.81
2024-01-31T01:56:38.999Z,101427.50
2024-01-31T01:59:09.136Z,101421.38
2024-01-31T02:01:43.204Z,101420.81
2024-01-31T02:04:13.310Z,101422.88
2024-01-31T02:06:43.921Z,101418.59
2024-01-31T02:09:14.762Z,101410.66
2024-01-31T02:11:44.664Z,101418.53
2024-01-31T02:14:14.973Z,101411.59
2024-01-31T02:16:50.041Z,101407.63
2024-01-31T02:19:20.046Z,101409.34
2024-01-31T02:21:50.017Z,101407.69
2024-01-31T02:24:22.426Z,101399.78
2024-01-31T02:26:52.298Z,101396.47
2024-01-31T02:29:22.164Z,101402.75
2024-01-31T02:31:52.040Z,101404.44
2024-01-31T02:34:22.244Z,101394.78
2024-01-31T02:36:52.214Z,101400.06
2024-01-31T02:39:24.691Z,101396.63
2024-01-31T02:41:54.981Z,101396.69
2024-01-31T02:44:25.952Z,101401.97
2024-01-31T02:46:55.840Z,101404.59
2024-01-31T02:49:25.869Z,101401.06
2024-01-31T02:51:56.753Z,101399.38
2024-01-31T02:54:29.276Z,101396.00
2024-01-31T02:56:59.115Z,101397.06
2024-01-31T02:59:28.967Z,101405.94
2024-01-31T03:02:00.033Z,101401.66
2024-01-31T03:04:30.021Z,101395.44
2024-01-31T03:06:59.925Z,101403.97
2024-01-31T03:09:33.206Z,101402.97
2024-01-31T03:12:05.759Z,101399.38
2024-01-31T03:14:35.720Z,101406.22
2024-01-31T03:17:05.767Z,101406.19
2024-01-31T03:19:37.254Z,101405.06
2024-01-31T03:22:10.449Z,101415.59
2024-01-31T03:24:42.976Z,101415.50
2024-01-31T03:27:15.381Z,101422.41
2024-01-31T03:29:46.466Z,101415.31
2024-01-31T03:32:16.360Z,101420.53
2024-01-31T03:34:46.511Z,101418.69
2024-01-31T03:37:16.423Z,101416.00
2024-01-31T03:39:48.913Z,101418.50
2024-01-31T03:42:18.816Z,101419.38
2024-01-31T03:44:48.679Z,101427.06
2024-01-31T03:47:18.659Z,101428.25
2024-01-31T03:49:51.091Z,101419.50
2024-01-31T03:52:21.194Z,101425.63
2024-01-31T03:54:53.745Z,101428.31
2024-01-31T03:57:23.585Z,101422.13
2024-01-31T03:59:53.487Z,101427.28
2024-01-31T04:02:23.500Z,101426.50
2024-01-31T04:04:53.477Z,101427.34
2024-01-31T04:07:23.386Z,101422.06
2024-01-31T04:09:55.872Z,101422.06
2024-01-31T04:12:25.768Z,101423.81
2024-01-31T04:14:55.599Z,101429.13
2024-01-31T04:17:25.649Z,101428.31
2024-01-31T04:19:55.574Z,101437.84
2024-01-31T04:22:25.548Z,101430.03
2024-01-31T04:24:58.074Z,101424.72
2024-01-31T04:27:27.980Z,101425.56
2024-01-31T04:29:57.828Z,101434.25
2024-01-31T04:32:27.753Z,101427.41
2024-01-31T04:34:57.701Z,101418.81
2024-01-31T04:37:27.663Z,101427.47
2024-01-31T04:40:00.564Z,101429.53
2024-01-31T04:42:30.716Z,101441.75
2024-01-31T04:45:00.578Z,101440.78
2024-01-31T04:47:30.514Z,101446.06
2024-01-31T04:50:00.689Z,101445.19
2024-01-31T04:52:30.939Z,101446.22
2024-01-31T04:55:04.035Z,101447.03
2024-01-31T04:57:34.034Z,101439.16
2024-01-31T05:00:06.186Z,101436.53
2024-01-31T05:02:36.032Z,101444.50
2024-01-31T05:05:06.026Z,101440.22
2024-01-31T05:07:35.972Z,101451.72
2024-01-31T05:10:10.469Z,101454.31
2024-01-31T05:12:40.496Z,101448.13
2024-01-31T05:15:11.636Z,101453.34
2024-01-31T05:17:42.652Z,101443.06
2024-01-31T05:20:13.511Z,101445.81
2024-01-31T05:22:44.125Z,101451.84
2024-01-31T05:25:16.822Z,101446.44
2024-01-31T05:27:46.740Z,101454.41
2024-01-31T05:30:17.592Z,101458.84
2024-01-31T05:32:47.887Z,101460.69
2024-01-31T05:35:17.960Z,101453.94
2024-01-31T05:37:47.989Z,101459.09
2024-01-31T05:40:20.734Z,101461.72
2024-01-31T05:42:53.332Z,101458.47
2024-01-31T05:45:23.653Z,101460.97
2024-01-31T05:47:53.736Z,101453.94
2024-01-31T05:50:23.597Z,101450.53
2024-01-31T05:52:53.496Z,101446.19
2024-01-31T05:55:25.951Z,101451.41
2024-01-31T05:57:56.146Z,101454.16
2024-01-31T06:00:26.572Z,101457.41
2024-01-31T06:03:00.096Z,101465.16
2024-01-31T06:05:31.278Z,101462.81
2024-01-31T06:08:04.192Z,101457.53
2024-01-31T06:10:38.491Z,101460.97
2024-01-31T06:13:08.502Z,101460.16
2024-01-31T06:15:38.477Z,101464.53
2024-01-31T06:18:08.655Z,101460.97
2024-01-31T06:20:42.087Z,101461.06
2024-01-31T06:23:11.997Z,101459.25
2024-01-31T06:25:44.627Z,101465.50
2024-01-31T06:28:14.597Z,101474.34
2024-01-31T06:30:46.237Z,101475.25
2024-01-31T06:33:18.956Z,101479.72
2024-01-31T06:35:49.079Z,101480.69
2024-01-31T06:38:19.324Z,101481.69
2024-01-31T06:40:51.947Z,101474.06
2024-01-31T06:43:21.866Z,101479.47
2024-01-31T06:45:51.838Z,101475.09
2024-01-31T06:48:21.912Z,101483.81
2024-01-31T06:50:52.093Z,101487.31
2024-01-31T06:53:22.851Z,101483.91
2024-01-31T06:55:55.370Z,101482.34
2024-01-31T06:58:26.038Z,101484.06
2024-01-31T07:00:59.414Z,101490.34
2024-01-31T07:03:29.560Z,101499.13
2024-01-31T07:05:59.464Z,101493.09
2024-01-31T07:08:29.361Z,101500.16
2024-01-31T07:11:01.954Z,101495.88
2024-01-31T07:13:33.129Z,101496.84
2024-01-31T07:16:03.031Z,101504.69
2024-01-31T07:18:33.844Z,101510.81
2024-01-31T07:21:03.938Z,101510.13
2024-01-31T07:23:33.895Z,101510.13
2024-01-31T07:26:06.514Z,101513.66
2024-01-31T07:28:38.164Z,101518.88
2024-01-31T07:31:08.220Z,101519.88
2024-01-31T07:33:38.536Z,101517.19
2024-01-31T07:36:09.459Z,101518.06
2024-01-31T07:38:39.365Z,101520.59
2024-01-31T07:41:11.872Z,101513.66
2024-01-31T07:43:43.965Z,101514.69
2024-01-31T07:46:14.444Z,101514.06
2024-01-31T07:48:44.339Z,101507.22
2024-01-31T07:51:14.223Z,101500.41
2024-01-31T07:53:44.682Z,101509.34
2024-01-31T07:56:17.289Z,101517.31
2024-01-31T07:58:47.285Z,101510.28
2024-01-31T08:01:17.351Z,101515.63
2024-01-31T08:03:47.298Z,101513.03
2024-01-31T08:06:17.502Z,101516.72
2024-01-31T08:08:47.446Z,101522.06
2024-01-31T08:11:20.002Z,101519.84
2024-01-31T08:13:49.991Z,101530.31
2024-01-31T08:16:20.226Z,101526.78
2024-01-31T08:18:50.092Z,101533.00
2024-01-31T08:21:20.066Z,101539.22
2024-01-31T08:23:51.486Z,101542.47
2024-01-31T08:26:24.078Z,101539.16
2024-01-31T08:29:07.093Z,101531.31
2024-01-31T08:31:45.034Z,101529.81
2024-01-31T08:34:16.239Z,101540.50
2024-01-31T08:36:46.278Z,101539.91
2024-01-31T08:39:16.151Z,101535.00
2024-01-31T08:41:48.664Z,101544.97
2024-01-31T08:44:18.650Z,101544.56
2024-01-31T08:46:58.961Z,101549.22
2024-01-31T08:49:38.901Z,101543.06
2024-01-31T08:52:09.729Z,101546.81
2024-01-31T08:54:39.940Z,101550.16
2024-01-31T08:57:12.494Z,101544.16
2024-01-31T08:59:42.376Z,101542.97
2024-01-31T09:02:12.485Z,101549.88
2024-01-31T09:04:42.581Z,101540.75
2024-01-31T09:07:12.579Z,101545.97
2024-01-31T09:09:42.525Z,101552.00
2024-01-31T09:12:14.990Z,101550.78
2024-01-31T09:14:44.843Z,101563.59
2024-01-31T09:17:14.727Z,101561.72
2024-01-31T09:19:48.068Z,101568.41
2024-01-31T09:22:18.039Z,101565.44
2024-01-31T09:24:48.183Z,101561.63
2024-01-31T09:27:20.767Z,101570.47
2024-01-31T09:29:50.766Z,101565.72
2024-01-31T09:32:21.119Z,101566.22
2024-01-31T09:34:52.895Z,101572.38
2024-01-31T09:37:25.260Z,101580.25
2024-01-31T09:39:57.513Z,101581.06
2024-01-31T09:42:30.072Z,101576.81
2024-01-31T09:45:01.675Z,101572.03
2024-01-31T09:47:33.392Z,101570.78
2024-01-31T09:50:04.334Z,101572.41
2024-01-31T09:52:35.317Z,101565.09
2024-01-31T09:55:06.456Z,101570.53
2024-01-31T09:57:39.096Z,101564.91
2024-01-31T10:00:10.682Z,101562.63
2024-01-31T10:02:45.083Z,101561.09
2024-01-31T10:05:15.008Z,101557.22
2024-01-31T10:07:45.160Z,101554.91
2024-01-31T10:10:15.294Z,101547.78
2024-01-31T10:12:47.804Z,101552.44
2024-01-31T10:15:17.831Z,101538.69
2024-01-31T10:17:47.818Z,101529.19
2024-01-31T10:20:18.499Z,101538.19
2024-01-31T10:22:48.996Z,101524.78
2024-01-31T10:25:20.385Z,101522.81
2024-01-31T10:27:54.058Z,101529.63
2024-01-31T10:30:26.737Z,101524.44
2024-01-31T10:32:57.825Z,101521.09
2024-01-31T10:35:48.169Z,101519.13
2024-01-31T10:38:18.328Z,101518.63
2024-01-31T10:40:51.435Z,101520.06
2024-01-31T10:43:25.636Z,101513.03
2024-01-31T10:45:55.609Z,101511.25
2024-01-31T10:48:25.676Z,101512.06
2024-01-31T10:50:57.715Z,101514.06
2024-01-31T10:53:30.484Z,101521.53
2024-01-31T10:56:01.426Z,101517.00
2024-01-31T10:58:34.889Z,101517.59
2024-01-31T11:01:06.559Z,101506.81
2024-01-31T11:03:36.512Z,101500.97
2024-01-31T11:06:06.760Z,101510.28
2024-01-31T11:08:36.681Z,101500.19
2024-01-31T11:11:07.127Z,101496.28
2024-01-31T11:13:41.390Z,101490.56
2024-01-31T11:16:11.360Z,101486.19
2024-01-31T11:18:43.486Z,101497.28
2024-01-31T11:21:16.038Z,101485.97
2024-01-31T11:23:46.025Z,101483.97
2024-01-31T11:26:16.216Z,101479.72
2024-01-31T11:28:50.849Z,101475.75
2024-01-31T11:31:21.525Z,101478.50
2024-01-31T11:33:51.856Z,101464.47
2024-01-31T11:36:21.980Z,101474.09
2024-01-31T11:38:51.902Z,101475.63
2024-01-31T11:41:21.952Z,101470.66
2024-01-31T11:43:54.577Z,101465.41
2024-01-31T11:46:24.854Z,101468.25
2024-01-31T11:48:55.301Z,101464.09
2024-01-31T11:51:25.302Z,101476.69
2024-01-31T11:53:55.708Z,101467.81
2024-01-31T11:56:27.568Z,101478.31
2024-01-31T11:59:00.735Z,101474.66
2024-01-31T12:01:30.883Z,101473.16
2024-01-31T12:04:00.892Z,101472.53
2024-01-31T12:06:31.273Z,101478.59
2024-01-31T12:09:01.428Z,101469.81
2024-01-31T12:11:32.735Z,101474.91
2024-01-31T12:14:05.294Z,101466.72
2024-01-31T12:16:43.730Z,101459.50
2024-01-31T12:19:13.737Z,101463.16
2024-01-31T12:21:45.202Z,101458.50
2024-01-31T12:24:15.348Z,101465.31
2024-01-31T12:26:45.331Z,101455.91
2024-01-31T12:29:20.244Z,101461.25
2024-01-31T12:31:50.191Z,101456.13
2024-01-31T12:34:20.125Z,101456.09
2024-01-31T12:36:50.070Z,101450.78
2024-01-31T12:39:21.909Z,101454.47
2024-01-31T12:41:53.819Z,101462.44
2024-01-31T12:44:28.360Z,101459.81
2024-01-31T12:46:58.951Z,101459.06
2024-01-31T12:49:32.261Z,101459.06
2024-01-31T12:52:02.177Z,101454.31
2024-01-31T12:54:32.175Z,101463.75
2024-01-31T12:57:02.418Z,101464.44
2024-01-31T12:59:35.323Z,101464.56
2024-01-31T13:02:05.732Z,101457.69
2024-01-31T13:04:35.776Z,101456.84
2024-01-31T13:07:06.178Z,101440.34
2024-01-31T13:09:36.575Z,101443.06
2024-01-31T13:12:10.722Z,101455.63
2024-01-31T13:14:45.492Z,101441.19
2024-01-31T13:17:15.512Z,101447.59
2024-01-31T13:19:45.908Z,101439.34
2024-01-31T13:22:15.945Z,101437.31
2024-01-31T13:24:45.937Z,101432.22
2024-01-31T13:27:15.923Z,101440.91
2024-01-31T13:29:49.140Z,101429.59
2024-01-31T13:32:19.103Z,101434.84
2024-01-31T13:34:49.032Z,101419.38
2024-01-31T13:37:19.293Z,101404.63
2024-01-31T13:39:49.245Z,101405.69
2024-01-31T13:42:19.313Z,101407.56
2024-01-31T13:44:52.677Z,101408.41
2024-01-31T13:47:24.598Z,101407.28
2024-01-31T13:49:54.828Z,101405.03
2024-01-31T13:52:25.695Z,101413.06
2024-01-31T13:54:55.542Z,101408.16
2024-01-31T13:57:25.419Z,101400.97
2024-01-31T13:59:58.610Z,101400.13
2024-01-31T14:02:29.004Z,101393.22
2024-01-31T14:04:58.870Z,101402.16
2024-01-31T14:07:28.778Z,101396.09
2024-01-31T14:09:56.277Z,101394.53
2024-01-31T14:12:26.405Z,101398.19
2024-01-31T14:15:01.428Z,101396.59
2024-01-31T14:17:31.524Z,101393.06
2024-01-31T14:20:01.644Z,101393.81
2024-01-31T14:25:05.365Z,101389.63
2024-01-31T14:27:35.389Z,101383.22
2024-01-31T14:30:09.512Z,101384.78
2024-01-31T14:32:39.487Z,101385.69
2024-01-31T14:35:09.894Z,101373.50
2024-01-31T14:37:39.886Z,101378.31
2024-01-31T14:40:11.400Z,101381.66
2024-01-31T14:42:42.766Z,101379.09
2024-01-31T14:45:15.508Z,101390.31
2024-01-31T14:47:45.732Z,101378.81
2024-01-31T14:50:15.916Z,101373.41
2024-01-31T14:52:45.787Z,101362.00
2024-01-31T14:55:15.694Z,101346.97
2024-01-31T14:57:45.646Z,101349.53
2024-01-31T15:00:19.396Z,101352.72
2024-01-31T15:02:49.494Z,101360.38
2024-01-31T15:05:19.816Z,101353.34
2024-01-31T15:07:49.804Z,101355.84
2024-01-31T15:10:19.908Z,101363.72
2024-01-31T15:12:51.914Z,101363.78
2024-01-31T15:15:24.418Z,101370.59
2024-01-31T15:17:56.054Z,101367.84
2024-01-31T15:20:26.085Z,101368.63
2024-01-31T15:22:55.989Z,101371.25
2024-01-31T15:25:25.912Z,101374.69
2024-01-31T15:27:56.182Z,101369.41
2024-01-31T15:30:29.823Z,101371.03
2024-01-31T15:33:00.167Z,101370.06
2024-01-31T15:35:30.147Z,101382.28
2024-01-31T15:38:00.038Z,101381.19
2024-01-31T15:40:30.564Z,101382.88
2024-01-31T15:43:00.728Z,101382.94
2024-01-31T15:45:33.262Z,101377.78
2024-01-31T15:48:03.286Z,101389.03
2024-01-31T15:50:33.292Z,101384.59
2024-01-31T15:53:03.230Z,101383.69
2024-01-31T15:55:33.307Z,101380.09
2024-01-31T15:58:03.162Z,101375.66
2024-01-31T16:00:35.718Z,101373.88
2024-01-31T16:03:05.729Z,101383.44
2024-01-31T16:05:35.727Z,101384.16
2024-01-31T16:08:05.677Z,101385.78
2024-01-31T16:10:35.658Z,101390.25
2024-01-31T16:13:05.565Z,101390.25
2024-01-31T16:15:38.033Z,101383.13
2024-01-31T16:18:10.004Z,101388.34
2024-01-31T16:20:45.630Z,101383.00
2024-01-31T16:23:16.465Z,101387.19
2024-01-31T16:25:46.686Z,101380.25
2024-01-31T16:28:18.536Z,101376.72
2024-01-31T16:30:56.530Z,101373.13
2024-01-31T16:33:27.453Z,101373.91
2024-01-31T16:35:58.933Z,101374.91
2024-01-31T16:38:28.871Z,101369.56
2024-01-31T16:40:58.788Z,101371.41
2024-01-31T16:43:29.091Z,101374.03
2024-01-31T16:46:01.658Z,101366.13
2024-01-31T16:48:31.769Z,101363.56
2024-01-31T16:51:01.829Z,101356.47
2024-01-31T16:53:31.746Z,101364.38
2024-01-31T16:56:01.613Z,101367.91
2024-01-31T16:58:31.470Z,101362.53
2024-01-31T17:01:04.011Z,101362.41
2024-01-31T17:03:34.141Z,101361.50
2024-01-31T17:06:04.842Z,101354.44
2024-01-31T17:08:36.338Z,101358.69
2024-01-31T17:11:06.910Z,101357.75
2024-01-31T17:13:36.788Z,101348.91
2024-01-31T17:16:10.638Z,101348.06
2024-01-31T17:18:40.664Z,101343.47
2024-01-31T17:21:11.912Z,101342.59
2024-01-31T17:23:41.949Z,101336.41
2024-01-31T17:26:11.927Z,101332.94
2024-01-31T17:28:41.762Z,101331.06
2024-01-31T17:31:14.376Z,101321.50
2024-01-31T17:33:45.707Z,101320.66
2024-01-31T17:36:15.941Z,101318.00
2024-01-31T17:38:45.788Z,101306.72
2024-01-31T17:41:19.686Z,101309.47
2024-01-31T17:43:49.563Z,101298.88
2024-01-31T17:46:26.480Z,101313.59
2024-01-31T17:48:58.547Z,101314.44
2024-01-31T17:51:28.563Z,101310.94
2024-01-31T17:53:58.477Z,101307.38
2024-01-31T17:56:28.716Z,101303.88
2024-01-31T17:58:58.566Z,101299.34
2024-01-31T18:01:31.047Z,101301.91
2024-01-31T18:04:00.981Z,101309.69
2024-01-31T18:06:31.065Z,101298.38
2024-01-31T18:09:01.083Z,101289.56
2024-01-31T18:11:31.370Z,101287.97
2024-01-31T18:14:01.246Z,101290.53
2024-01-31T18:16:33.705Z,101293.00
2024-01-31T18:19:04.149Z,101297.41
2024-01-31T18:21:37.576Z,101293.00
2024-01-31T18:24:08.790Z,101285.09
2024-01-31T18:26:38.846Z,101291.94
2024-01-31T18:29:08.749Z,101287.53
2024-01-31T18:31:44.882Z,101275.38
2024-01-31T18:34:14.657Z,101277.94
2024-01-31T18:36:51.393Z,101279.50
2024-01-31T18:39:21.268Z,101265.38
2024-01-31T18:41:51.154Z,101265.38
2024-01-31T18:44:20.996Z,101260.94
2024-01-31T18:46:54.517Z,101257.38
2024-01-31T18:49:24.768Z,101252.13
2024-01-31T18:51:54.800Z,101252.91
2024-01-31T18:54:24.629Z,101255.53
2024-01-31T18:56:54.529Z,101255.47
2024-01-31T18:59:24.491Z,101260.69
2024-01-31T19:01:57.879Z,101245.84
2024-01-31T19:04:28.382Z,101251.09
2024-01-31T19:06:58.315Z,101250.16
2024-01-31T19:09:28.177Z,101250.16
2024-01-31T19:11:58.169Z,101245.03
2024-01-31T19:14:29.112Z,101232.84
2024-01-31T19:17:10.550Z,101231.88
2024-01-31T19:19:45.775Z,101222.22
2024-01-31T19:22:15.759Z,101217.00
2024-01-31T19:24:45.605Z,101216.88
2024-01-31T19:27:15.944Z,101216.78
2024-01-31T19:29:45.931Z,101211.50
2024-01-31T19:32:18.563Z,101219.34
2024-01-31T19:34:48.829Z,101209.69
2024-01-31T19:37:18.724Z,101214.88
2024-01-31T19:39:48.645Z,101208.50
2024-01-31T19:42:18.625Z,101200.56
2024-01-31T19:44:48.573Z,101194.16
2024-01-31T19:47:22.594Z,101197.31
2024-01-31T19:49:54.408Z,101177.75
2024-01-31T19:52:24.352Z,101184.47
2024-01-31T19:54:54.239Z,101177.41
2024-01-31T19:57:24.116Z,101182.50
2024-01-31T19:59:54.137Z,101173.75
2024-01-31T20:02:26.637Z,101175.03
2024-01-31T20:04:56.674Z,101175.41
2024-01-31T20:07:26.799Z,101162.88
2024-01-31T20:09:56.733Z,101162.44
2024-01-31T20:12:26.670Z,101169.91
2024-01-31T20:14:56.587Z,101163.41
2024-01-31T20:17:30.535Z,101162.31
2024-01-31T20:20:00.632Z,101154.09
2024-01-31T20:22:30.909Z,101157.00
2024-01-31T20:25:00.879Z,101147.34
2024-01-31T20:27:32.098Z,101146.19
2024-01-31T20:30:02.473Z,101137.00
2024-01-31T20:32:35.071Z,101131.38
2024-01-31T20:35:05.135Z,101119.88
2024-01-31T20:37:35.047Z,101119.59
2024-01-31T20:40:04.974Z,101114.19
2024-01-31T20:42:34.828Z,101106.03
2024-01-31T20:45:05.013Z,101098.75
2024-01-31T20:47:37.536Z,101088.84
2024-01-31T20:50:08.929Z,101096.31
2024-01-31T20:52:40.187Z,101094.31
2024-01-31T20:55:10.974Z,101077.31
2024-01-31T20:57:40.821Z,101076.22
2024-01-31T21:00:11.927Z,101079.50
2024-01-31T21:02:44.549Z,101074.16
2024-01-31T21:05:14.669Z,101079.81
2024-01-31T21:07:44.525Z,101075.38
2024-01-31T21:10:14.953Z,101070.63
2024-01-31T21:12:44.924Z,101071.22
2024-01-31T21:15:15.706Z,101070.06
2024-01-31T21:17:48.923Z,101066.47
2024-01-31T21:20:19.048Z,101058.31
2024-01-31T21:22:48.942Z,101063.13
2024-01-31T21:25:19.161Z,101063.75
2024-01-31T21:27:49.064Z,101053.84
2024-01-31T21:30:19.245Z,101052.44
2024-01-31T21:32:54.145Z,101039.09
2024-01-31T21:35:24.174Z,101040.44
2024-01-31T21:37:54.830Z,101036.06
2024-01-31T21:40:25.706Z,101024.69
2024-01-31T21:42:56.082Z,101018.06
2024-01-31T21:45:25.987Z,101014.34
2024-01-31T21:47:58.489Z,101008.59
2024-01-31T21:50:28.455Z,100990.88
2024-01-31T21:53:00.135Z,100987.22
2024-01-31T21:55:30.728Z,100986.19
2024-01-31T21:58:00.600Z,100975.56
2024-01-31T22:00:30.497Z,100967.63
2024-01-31T22:03:03.090Z,100954.41
2024-01-31T22:05:33.340Z,100955.31
2024-01-31T22:08:03.336Z,100939.22
2024-01-31T22:10:33.253Z,100936.06
2024-01-31T22:13:03.295Z,100929.22
2024-01-31T22:15:33.146Z,100918.81
2024-01-31T22:18:07.358Z,100917.88
2024-01-31T22:20:37.358Z,100912.75
2024-01-31T22:23:07.655Z,100911.69
2024-01-31T22:25:37.539Z,100902.97
2024-01-31T22:28:08.196Z,100902.81
2024-01-31T22:30:38.253Z,100903.91
2024-01-31T22:33:11.088Z,100889.16
2024-01-31T22:35:41.017Z,100885.22
2024-01-31T22:38:10.945Z,100897.09
2024-01-31T22:40:40.867Z,100899.78
2024-01-31T22:43:10.707Z,100889.97
2024-01-31T22:45:40.718Z,100890.56
2024-01-31T22:48:13.327Z,100887.31
2024-01-31T22:50:44.664Z,100879.00
2024-01-31T22:53:15.025Z,100880.47
2024-01-31T22:55:44.870Z,100870.09
2024-01-31T22:58:15.055Z,100864.97
2024-01-31T23:00:44.975Z,100854.06
2024-01-31T23:03:17.509Z,100846.81
2024-01-31T23:05:47.958Z,100829.50
2024-01-31T23:08:17.883Z,100836.53
2024-01-31T23:10:47.808Z,100819.34
2024-01-31T23:13:17.679Z,100818.31
2024-01-31T23:15:49.181Z,100811.25
2024-01-31T23:18:21.755Z,100811.34
2024-01-31T23:20:51.710Z,100818.94
2024-01-31T23:23:21.592Z,100821.00
2024-01-31T23:25:51.505Z,100810.78
2024-01-31T23:28:21.975Z,100797.22
2024-01-31T23:30:51.873Z,100788.78
2024-01-31T23:33:24.413Z,100794.63
2024-01-31T23:35:54.340Z,100781.34
2024-01-31T23:38:26.536Z,100764.81
2024-01-31T23:40:57.181Z,100777.66
2024-01-31T23:43:27.025Z,100768.59
2024-01-31T23:45:57.035Z,100772.31
2024-01-31T23:48:29.574Z,100765.03
2024-01-31T23:50:59.591Z,100763.09
2024-01-31T23:53:29.503Z,100744.28
2024-01-31T23:56:01.360Z,100759.94
2024-01-31T23:58:31.225Z,100752.00
